createdAt,value
2018-07-01T00:02:28.371Z,1.17
2018-07-01T00:04:58.921Z,0.87
2018-07-01T00:07:30.891Z,0.80
2018-07-01T00:10:02.279Z,0.70
2018-07-01T00:12:33.651Z,0.80
2018-07-01T00:15:05.542Z,0.90
2018-07-01T00:17:37.208Z,0.80
2018-07-01T00:20:09.856Z,0.80
2018-07-01T00:22:42.075Z,0.90
2018-07-01T00:25:14.478Z,0.80
2018-07-01T00:27:47.225Z,0.90
2018-07-01T00:30:18.512Z,0.80
2018-07-01T00:32:49.679Z,1.10
2018-07-01T00:35:20.934Z,0.60
2018-07-01T00:37:52.338Z,0.87
2018-07-01T00:40:23.765Z,0.73
2018-07-01T00:42:55.478Z,0.83
2018-07-01T00:45:28.911Z,0.80
2018-07-01T00:48:00.410Z,0.70
2018-07-01T00:50:31.668Z,0.70
2018-07-01T00:53:03.071Z,0.70
2018-07-01T00:55:34.250Z,0.70
2018-07-01T00:58:05.585Z,0.70
2018-07-01T01:00:36.979Z,0.70
2018-07-01T01:03:07.835Z,0.77
2018-07-01T01:05:39.148Z,0.70
2018-07-01T01:08:10.563Z,0.83
2018-07-01T01:10:42.112Z,0.77
2018-07-01T01:13:14.017Z,0.80
2018-07-01T01:15:45.387Z,0.87
2018-07-01T01:18:16.694Z,0.97
2018-07-01T01:20:48.122Z,0.70
2018-07-01T01:23:20.306Z,0.60
2018-07-01T01:25:52.450Z,0.70
2018-07-01T01:28:23.962Z,0.70
2018-07-01T01:30:55.325Z,0.80
2018-07-01T01:33:26.649Z,0.60
2018-07-01T01:35:58.240Z,0.70
2018-07-01T01:38:31.830Z,0.87
2018-07-01T01:41:36.251Z,0.83
2018-07-01T01:45:19.923Z,1.00
2018-07-01T01:47:55.703Z,0.93
2018-07-01T01:51:31.786Z,0.90
2018-07-01T01:54:22.771Z,0.80
2018-07-01T01:56:56.176Z,0.90
2018-07-01T01:59:39.069Z,0.90
2018-07-01T02:02:14.976Z,1.00
2018-07-01T02:04:49.512Z,0.87
2018-07-01T02:07:31.797Z,0.87
2018-07-01T02:10:02.741Z,0.80
2018-07-01T02:12:33.885Z,0.80
2018-07-01T02:15:09.451Z,0.60
2018-07-01T02:17:44.064Z,0.70
2018-07-01T02:20:16.257Z,0.50
2018-07-01T02:22:53.809Z,0.70
2018-07-01T02:25:27.668Z,0.70
2018-07-01T02:27:58.921Z,0.70
2018-07-01T02:30:30.109Z,0.60
2018-07-01T02:33:01.218Z,0.67
2018-07-01T02:35:33.255Z,0.80
2018-07-01T02:38:05.082Z,0.70
2018-07-01T02:40:35.250Z,0.70
2018-07-01T02:43:06.337Z,0.90
2018-07-01T02:45:37.955Z,0.80
2018-07-01T02:48:09.619Z,0.60
2018-07-01T02:50:40.469Z,0.77
2018-07-01T02:53:12.054Z,0.70
2018-07-01T02:55:43.831Z,0.90
2018-07-01T02:58:14.793Z,0.80
2018-07-01T03:00:46.636Z,0.63
2018-07-01T03:03:18.562Z,0.67
2018-07-01T03:05:49.739Z,0.80
2018-07-01T03:08:20.108Z,0.70
2018-07-01T03:10:51.657Z,0.80
2018-07-01T03:13:22.653Z,0.60
2018-07-01T03:15:53.725Z,0.70
2018-07-01T03:18:24.916Z,0.80
2018-07-01T03:20:56.716Z,0.63
2018-07-01T03:23:27.263Z,0.80
2018-07-01T03:25:58.222Z,0.80
2018-07-01T03:28:30.120Z,0.63
2018-07-01T03:31:03.379Z,0.57
2018-07-01T03:33:34.517Z,0.80
2018-07-01T03:36:05.522Z,0.70
2018-07-01T03:38:37.369Z,0.60
2018-07-01T03:41:09.010Z,0.63
2018-07-01T03:43:40.769Z,0.70
2018-07-01T03:46:12.284Z,0.60
2018-07-01T03:48:44.269Z,0.63
2018-07-01T03:51:15.342Z,0.70
2018-07-01T03:53:46.497Z,0.80
2018-07-01T03:56:18.309Z,0.77
2018-07-01T03:58:50.263Z,0.60
2018-07-01T04:01:22.973Z,0.70
2018-07-01T04:03:54.047Z,0.83
2018-07-01T04:06:25.257Z,0.67
2018-07-01T04:08:56.330Z,0.70
2018-07-01T04:11:28.526Z,0.60
2018-07-01T04:13:59.421Z,0.70
2018-07-01T04:16:30.462Z,0.60
2018-07-01T04:19:03.220Z,0.80
2018-07-01T04:21:34.121Z,0.57
2018-07-01T04:24:05.893Z,0.50
2018-07-01T04:26:37.816Z,0.70
2018-07-01T04:29:09.683Z,0.60
2018-07-01T04:31:40.841Z,0.50
2018-07-01T04:34:11.990Z,0.60
2018-07-01T04:36:44.778Z,0.53
2018-07-01T04:39:16.505Z,0.50
2018-07-01T04:41:48.099Z,0.70
2018-07-01T04:44:19.114Z,0.40
2018-07-01T04:46:52.129Z,0.60
2018-07-01T04:49:24.171Z,0.50
2018-07-01T04:51:55.330Z,0.77
2018-07-01T04:54:26.357Z,0.47
2018-07-01T04:56:57.438Z,0.60
2018-07-01T04:59:29.351Z,0.60
2018-07-01T05:02:00.520Z,0.60
2018-07-01T05:04:31.478Z,0.43
2018-07-01T05:07:04.718Z,0.60
2018-07-01T05:09:35.685Z,0.50
2018-07-01T05:12:06.917Z,0.40
2018-07-01T05:14:38.421Z,0.73
2018-07-01T05:17:10.780Z,0.40
2018-07-01T05:19:42.430Z,0.57
2018-07-01T05:22:14.305Z,0.60
2018-07-01T05:24:45.338Z,0.40
2018-07-01T05:27:16.580Z,0.50
2018-07-01T05:29:47.614Z,0.50
2018-07-01T05:32:18.631Z,0.53
2018-07-01T05:34:48.895Z,0.50
2018-07-01T05:37:19.788Z,0.47
2018-07-01T05:39:50.866Z,0.60
2018-07-01T05:42:22.722Z,0.60
2018-07-01T05:44:54.924Z,0.60
2018-07-01T05:47:26.023Z,0.47
2018-07-01T05:49:57.071Z,0.77
2018-07-01T05:52:27.356Z,0.70
2018-07-01T05:54:58.242Z,0.50
2018-07-01T05:57:29.094Z,0.57
2018-07-01T05:59:59.837Z,0.57
2018-07-01T06:02:32.856Z,0.93
2018-07-01T06:05:05.194Z,0.80
2018-07-01T06:07:36.129Z,0.53
2018-07-01T06:10:06.624Z,0.50
2018-07-01T06:12:37.517Z,0.60
2018-07-01T06:15:09.425Z,0.43
2018-07-01T06:17:40.417Z,0.50
2018-07-01T06:20:11.673Z,0.73
2018-07-01T06:22:43.078Z,0.50
2018-07-01T06:25:14.194Z,0.50
2018-07-01T06:27:45.949Z,0.50
2018-07-01T06:30:16.926Z,0.50
2018-07-01T06:32:47.923Z,0.60
2018-07-01T06:35:19.021Z,0.47
2018-07-01T06:37:51.082Z,0.50
2018-07-01T06:40:22.873Z,0.60
2018-07-01T06:42:53.986Z,0.50
2018-07-01T06:45:25.098Z,0.87
2018-07-01T06:47:56.125Z,0.60
2018-07-01T06:50:27.728Z,0.60
2018-07-01T06:52:59.411Z,0.50
2018-07-01T06:55:30.438Z,0.50
2018-07-01T06:58:02.217Z,0.70
2018-07-01T07:00:33.391Z,0.57
2018-07-01T07:03:04.866Z,0.80
2018-07-01T07:05:35.868Z,0.60
2018-07-01T07:08:06.925Z,0.60
2018-07-01T07:10:37.924Z,0.60
2018-07-01T07:13:09.968Z,0.60
2018-07-01T07:15:41.776Z,0.57
2018-07-01T07:18:12.480Z,0.53
2018-07-01T07:20:44.409Z,0.60
2018-07-01T07:23:15.454Z,0.60
2018-07-01T07:25:46.673Z,0.47
2018-07-01T07:28:17.943Z,0.40
2018-07-01T07:30:49.028Z,0.60
2018-07-01T07:33:20.988Z,0.23
2018-07-01T07:35:52.641Z,0.60
2018-07-01T07:38:23.817Z,0.40
2018-07-01T07:40:55.809Z,0.50
2018-07-01T07:43:26.949Z,0.57
2018-07-01T07:45:59.516Z,0.50
2018-07-01T07:48:32.365Z,0.60
2018-07-01T07:51:04.159Z,0.33
2018-07-01T07:53:34.954Z,0.60
2018-07-01T07:56:05.692Z,0.70
2018-07-01T07:58:36.497Z,0.60
2018-07-01T08:01:07.732Z,0.40
2018-07-01T08:03:38.704Z,0.40
2018-07-01T08:06:09.463Z,0.40
2018-07-01T08:08:41.540Z,0.40
2018-07-01T08:11:12.366Z,0.50
2018-07-01T08:13:43.224Z,0.43
2018-07-01T08:16:14.396Z,0.40
2018-07-01T08:18:45.618Z,0.30
2018-07-01T08:21:16.420Z,0.40
2018-07-01T08:23:47.192Z,0.43
2018-07-01T08:26:17.878Z,0.40
2018-07-01T08:28:48.653Z,0.60
2018-07-01T08:31:19.429Z,0.40
2018-07-01T08:33:50.263Z,0.30
2018-07-01T08:36:20.992Z,0.60
2018-07-01T08:38:52.257Z,0.40
2018-07-01T08:41:23.174Z,0.30
2018-07-01T08:43:54.313Z,0.50
2018-07-01T08:46:25.700Z,0.50
2018-07-01T08:48:56.746Z,0.60
2018-07-01T08:51:27.917Z,0.50
2018-07-01T08:53:59.072Z,0.40
2018-07-01T08:56:31.010Z,0.50
2018-07-01T08:59:01.528Z,0.63
2018-07-01T09:01:33.344Z,0.30
2018-07-01T09:04:04.617Z,0.43
2018-07-01T09:06:36.937Z,0.40
2018-07-01T09:09:09.773Z,0.47
2018-07-01T09:11:40.907Z,0.33
2018-07-01T09:14:12.742Z,0.30
2018-07-01T09:16:44.248Z,0.30
2018-07-01T09:19:15.533Z,0.40
2018-07-01T09:21:46.058Z,0.40
2018-07-01T09:24:17.021Z,0.50
2018-07-01T09:26:49.045Z,0.40
2018-07-01T09:29:21.338Z,0.57
2018-07-01T09:31:54.000Z,0.40
2018-07-01T09:34:26.644Z,0.50
2018-07-01T09:36:59.519Z,0.50
2018-07-01T09:39:30.485Z,0.30
2018-07-01T09:42:01.765Z,0.20
2018-07-01T09:44:33.229Z,0.40
2018-07-01T09:47:05.182Z,0.20
2018-07-01T09:49:36.904Z,0.33
2018-07-01T09:52:08.870Z,0.50
2018-07-01T09:54:40.009Z,0.40
2018-07-01T09:57:11.115Z,0.30
2018-07-01T09:59:41.800Z,0.33
2018-07-01T10:02:12.481Z,0.40
2018-07-01T10:04:43.174Z,0.50
2018-07-01T10:07:13.885Z,0.40
2018-07-01T10:09:45.014Z,0.40
2018-07-01T10:12:15.752Z,0.40
2018-07-01T10:14:46.072Z,0.40
2018-07-01T10:17:16.613Z,0.50
2018-07-01T10:19:48.059Z,0.40
2018-07-01T10:22:19.136Z,0.50
2018-07-01T10:24:50.108Z,0.40
2018-07-01T10:27:20.849Z,0.40
2018-07-01T10:29:51.542Z,0.30
2018-07-01T10:32:22.217Z,0.40
2018-07-01T10:34:53.064Z,0.40
2018-07-01T10:37:24.011Z,0.37
2018-07-01T10:39:54.893Z,0.40
2018-07-01T10:42:25.651Z,0.40
2018-07-01T10:44:56.599Z,0.37
2018-07-01T10:47:27.338Z,0.30
2018-07-01T10:49:58.168Z,0.40
2018-07-01T10:52:28.894Z,0.40
2018-07-01T10:54:59.875Z,0.50
2018-07-01T10:57:31.097Z,0.40
2018-07-01T11:00:02.163Z,0.50
2018-07-01T11:02:33.531Z,0.50
2018-07-01T11:05:04.817Z,0.30
2018-07-01T11:07:36.069Z,0.40
2018-07-01T11:10:06.636Z,0.40
2018-07-01T11:12:38.141Z,0.30
2018-07-01T11:15:08.785Z,0.30
2018-07-01T11:17:39.857Z,0.33
2018-07-01T11:20:10.878Z,0.33
2018-07-01T11:22:42.918Z,0.30
2018-07-01T11:25:13.939Z,0.40
2018-07-01T11:27:45.139Z,0.40
2018-07-01T11:30:16.351Z,0.40
2018-07-01T11:32:47.514Z,0.40
2018-07-01T11:35:18.745Z,0.20
2018-07-01T11:37:49.668Z,0.30
2018-07-01T11:40:20.724Z,0.30
2018-07-01T11:42:52.104Z,0.30
2018-07-01T11:45:22.635Z,0.37
2018-07-01T11:47:53.683Z,0.30
2018-07-01T11:50:24.262Z,0.40
2018-07-01T11:52:55.377Z,0.40
2018-07-01T11:55:27.218Z,0.37
2018-07-01T11:57:58.125Z,0.50
2018-07-01T12:00:29.073Z,0.40
2018-07-01T12:02:59.901Z,0.60
2018-07-01T12:05:30.763Z,0.43
2018-07-01T12:08:01.421Z,0.47
2018-07-01T12:10:32.568Z,0.33
2018-07-01T12:13:03.197Z,0.50
2018-07-01T12:15:34.313Z,0.40
2018-07-01T12:18:05.069Z,0.50
2018-07-01T12:20:35.801Z,0.60
2018-07-01T12:23:06.489Z,0.40
2018-07-01T12:25:37.229Z,0.60
2018-07-01T12:28:07.976Z,0.50
2018-07-01T12:30:38.678Z,0.50
2018-07-01T12:33:10.669Z,0.40
2018-07-01T12:35:41.974Z,0.47
2018-07-01T12:38:13.891Z,0.53
2018-07-01T12:40:44.585Z,0.60
2018-07-01T12:43:17.389Z,0.50
2018-07-01T12:45:48.898Z,0.50
2018-07-01T12:48:19.925Z,0.60
2018-07-01T12:50:50.983Z,0.40
2018-07-01T12:53:22.717Z,0.40
2018-07-01T12:55:53.531Z,0.73
2018-07-01T12:58:24.226Z,0.43
2018-07-01T13:00:55.023Z,0.60
2018-07-01T13:03:25.692Z,0.50
2018-07-01T13:05:57.892Z,0.57
2018-07-01T13:08:30.329Z,0.50
2018-07-01T13:11:03.342Z,0.53
2018-07-01T13:13:33.581Z,0.40
2018-07-01T13:16:04.528Z,0.60
2018-07-01T13:18:35.618Z,0.60
2018-07-01T13:21:06.510Z,0.70
2018-07-01T13:23:37.436Z,0.40
2018-07-01T13:26:08.487Z,0.60
2018-07-01T13:28:39.440Z,0.40
2018-07-01T13:31:10.253Z,0.47
2018-07-01T13:33:41.351Z,0.60
2018-07-01T13:36:12.280Z,0.60
2018-07-01T13:38:43.199Z,0.50
2018-07-01T13:41:14.218Z,0.53
2018-07-01T13:43:45.244Z,0.60
2018-07-01T13:46:16.121Z,0.60
2018-07-01T13:48:47.013Z,0.60
2018-07-01T13:51:17.761Z,0.83
2018-07-01T13:53:49.054Z,0.70
2018-07-01T13:56:19.238Z,0.60
2018-07-01T13:58:49.805Z,0.50
2018-07-01T14:01:20.559Z,0.43
2018-07-01T14:03:51.415Z,0.50
2018-07-01T14:06:22.498Z,0.70
2018-07-01T14:08:53.418Z,0.53
2018-07-01T14:11:24.520Z,0.60
2018-07-01T14:13:54.806Z,0.60
2018-07-01T14:16:25.599Z,0.40
2018-07-01T14:18:56.453Z,0.70
2018-07-01T14:21:27.616Z,0.80
2018-07-01T14:23:58.825Z,0.60
2018-07-01T14:26:29.799Z,0.50
2018-07-01T14:29:01.495Z,0.70
2018-07-01T14:31:32.500Z,0.60
2018-07-01T14:34:03.520Z,0.70
2018-07-01T14:36:34.633Z,0.50
2018-07-01T14:39:09.078Z,0.50
2018-07-01T14:41:39.956Z,0.60
2018-07-01T14:44:11.128Z,0.70
2018-07-01T14:46:42.221Z,0.60
2018-07-01T14:49:13.788Z,0.50
2018-07-01T14:51:44.598Z,0.60
2018-07-01T14:54:15.815Z,0.60
2018-07-01T14:56:46.518Z,0.70
2018-07-01T14:59:17.237Z,0.80
2018-07-01T15:01:47.249Z,0.80
2018-07-01T15:04:17.892Z,0.70
2018-07-01T15:06:48.089Z,0.80
2018-07-01T15:09:18.642Z,0.50
2018-07-01T15:11:49.765Z,0.60
2018-07-01T15:14:20.561Z,0.70
2018-07-01T15:16:51.349Z,0.70
2018-07-01T15:19:22.356Z,0.90
2018-07-01T15:21:53.111Z,0.80
2018-07-01T15:24:23.872Z,0.80
2018-07-01T15:26:54.897Z,0.90
2018-07-01T15:29:25.624Z,0.70
2018-07-01T15:31:56.541Z,0.70
2018-07-01T15:34:27.430Z,0.70
2018-07-01T15:36:58.240Z,0.60
2018-07-01T15:39:29.114Z,0.63
2018-07-01T15:42:00.001Z,0.70
2018-07-01T15:44:30.746Z,0.70
2018-07-01T15:47:01.525Z,0.60
2018-07-01T15:49:32.884Z,0.70
2018-07-01T15:52:03.657Z,0.83
2018-07-01T15:54:34.346Z,0.50
2018-07-01T15:57:05.203Z,0.70
2018-07-01T15:59:36.108Z,0.77
2018-07-01T16:02:08.014Z,0.60
2018-07-01T16:04:38.549Z,0.70
2018-07-01T16:07:09.255Z,0.80
2018-07-01T16:09:42.029Z,0.70
2018-07-01T16:12:12.970Z,0.70
2018-07-01T16:14:43.985Z,0.50
2018-07-01T16:17:14.699Z,0.70
2018-07-01T16:19:44.701Z,0.60
2018-07-01T16:22:15.540Z,0.80
2018-07-01T16:24:51.586Z,0.70
2018-07-01T16:27:28.704Z,0.80
2018-07-01T16:29:59.884Z,0.60
2018-07-01T16:32:30.573Z,0.77
2018-07-01T16:35:03.785Z,0.97
2018-07-01T16:37:34.815Z,0.70
2018-07-01T16:40:05.810Z,0.93
2018-07-01T16:42:36.619Z,0.70
2018-07-01T16:45:07.685Z,0.73
2018-07-01T16:47:38.735Z,0.60
2018-07-01T16:50:09.965Z,0.70
2018-07-01T16:52:41.116Z,0.80
2018-07-01T16:55:12.882Z,0.73
2018-07-01T16:57:44.261Z,0.70
2018-07-01T17:00:14.958Z,0.90
2018-07-01T17:02:45.644Z,1.00
2018-07-01T17:05:16.436Z,0.63
2018-07-01T17:07:47.269Z,0.60
2018-07-01T17:10:17.922Z,0.80
2018-07-01T17:12:48.600Z,0.70
2018-07-01T17:15:19.261Z,0.80
2018-07-01T17:17:49.260Z,0.70
2018-07-01T17:20:19.783Z,0.60
2018-07-01T17:22:50.925Z,0.60
2018-07-01T17:25:21.557Z,0.60
2018-07-01T17:27:52.237Z,0.60
2018-07-01T17:30:22.949Z,0.67
2018-07-01T17:33:31.066Z,0.50
2018-07-01T17:36:01.759Z,0.60
2018-07-01T17:38:32.487Z,0.60
2018-07-01T17:41:03.181Z,0.70
2018-07-01T17:43:33.884Z,0.67
2018-07-01T17:46:04.590Z,0.70
2018-07-01T17:48:35.257Z,0.70
2018-07-01T17:51:05.244Z,0.73
2018-07-01T17:53:46.300Z,0.80
2018-07-01T17:56:16.974Z,0.70
2018-07-01T17:58:47.933Z,0.63
2018-07-01T18:01:18.855Z,0.90
2018-07-01T18:03:50.177Z,0.70
2018-07-01T18:06:20.857Z,0.80
2018-07-01T18:08:51.579Z,0.80
2018-07-01T18:11:22.811Z,0.70
2018-07-01T18:13:54.577Z,0.70
2018-07-01T18:16:26.152Z,0.70
2018-07-01T18:18:56.521Z,0.70
2018-07-01T18:21:44.901Z,0.90
2018-07-01T18:24:27.540Z,0.80
2018-07-01T18:26:30.601Z,0.80
2018-07-01T18:29:10.777Z,0.73
2018-07-01T18:31:33.019Z,0.90
2018-07-01T18:34:03.962Z,0.80
2018-07-01T18:36:35.342Z,0.80
2018-07-01T18:39:09.584Z,0.70
2018-07-01T18:41:41.364Z,0.87
2018-07-01T18:44:12.670Z,0.80
2018-07-01T18:46:44.106Z,0.90
2018-07-01T18:49:15.555Z,0.80
2018-07-01T18:51:46.907Z,0.77
2018-07-01T18:54:17.223Z,0.80
2018-07-01T18:56:48.238Z,0.70
2018-07-01T18:59:19.215Z,0.70
2018-07-01T19:01:49.588Z,0.80
2018-07-01T19:04:21.786Z,1.00
2018-07-01T19:06:53.993Z,0.80
2018-07-01T19:09:25.249Z,0.83
2018-07-01T19:11:56.143Z,0.67
2018-07-01T19:14:26.969Z,0.70
2018-07-01T19:16:58.399Z,0.90
2018-07-01T19:19:29.482Z,0.73
2018-07-01T19:22:00.938Z,0.90
2018-07-01T19:24:32.065Z,0.90
2018-07-01T19:27:02.870Z,0.80
2018-07-01T19:29:35.083Z,0.70
2018-07-01T19:32:06.192Z,0.93
2018-07-01T19:34:37.606Z,0.80
2018-07-01T19:37:08.714Z,0.70
2018-07-01T19:39:40.038Z,0.80
2018-07-01T19:42:11.410Z,0.77
2018-07-01T19:44:43.584Z,0.80
2018-07-01T19:47:15.414Z,0.80
2018-07-01T19:49:46.831Z,0.80
2018-07-01T19:52:18.356Z,0.60
2018-07-01T19:54:49.806Z,1.00
2018-07-01T19:57:20.963Z,0.70
2018-07-01T19:59:52.986Z,0.70
2018-07-01T20:02:23.996Z,0.80
2018-07-01T20:04:55.525Z,0.90
2018-07-01T20:07:26.620Z,0.70
2018-07-01T20:09:57.661Z,0.80
2018-07-01T20:12:28.581Z,0.90
2018-07-01T20:14:59.611Z,0.70
2018-07-01T20:17:30.838Z,0.90
2018-07-01T20:20:06.953Z,0.73
2018-07-01T20:22:37.699Z,0.83
2018-07-01T20:25:09.739Z,0.70
2018-07-01T20:27:40.986Z,0.83
2018-07-01T20:30:12.467Z,0.90
2018-07-01T20:32:43.703Z,0.87
2018-07-01T20:35:14.846Z,0.83
2018-07-01T20:37:46.262Z,0.80
2018-07-01T20:40:17.607Z,0.80
2018-07-01T20:42:48.841Z,1.10
2018-07-01T20:45:20.260Z,0.90
2018-07-01T20:47:51.535Z,1.10
2018-07-01T20:50:22.968Z,0.80
2018-07-01T20:52:54.301Z,1.00
2018-07-01T20:55:25.475Z,0.97
2018-07-01T20:57:56.863Z,0.90
2018-07-01T21:00:28.105Z,1.03
2018-07-01T21:02:59.737Z,0.80
2018-07-01T21:05:31.845Z,0.90
2018-07-01T21:08:04.106Z,0.80
2018-07-01T21:10:35.811Z,0.83
2018-07-01T21:13:07.346Z,0.83
2018-07-01T21:15:39.745Z,0.90
2018-07-01T21:18:10.876Z,1.00
2018-07-01T21:20:42.097Z,1.00
2018-07-01T21:23:14.448Z,0.90
2018-07-01T21:25:45.847Z,0.90
2018-07-01T21:28:17.237Z,0.93
2018-07-01T21:30:49.211Z,1.10
2018-07-01T21:33:20.501Z,0.97
2018-07-01T21:35:52.030Z,1.00
2018-07-01T21:38:23.203Z,0.70
2018-07-01T21:40:55.193Z,0.90
2018-07-01T21:43:26.675Z,1.00
2018-07-01T21:45:58.046Z,0.90
2018-07-01T21:48:29.385Z,0.80
2018-07-01T21:51:00.750Z,1.00
2018-07-01T21:53:32.324Z,1.03
2018-07-01T21:56:03.521Z,0.90
2018-07-01T21:58:34.932Z,1.10
2018-07-01T22:01:07.794Z,0.90
2018-07-01T22:03:40.359Z,1.00
2018-07-01T22:06:12.298Z,1.00
2018-07-01T22:08:44.678Z,0.80
2018-07-01T22:11:55.542Z,1.07
2018-07-01T22:14:28.495Z,0.90
2018-07-01T22:17:01.212Z,1.00
2018-07-01T22:19:33.692Z,1.13
2018-07-01T22:22:06.178Z,0.93
2018-07-01T22:24:38.438Z,1.00
2018-07-01T22:27:09.675Z,1.00
2018-07-01T22:29:41.087Z,1.00
2018-07-01T22:32:12.196Z,1.00
2018-07-01T22:34:43.524Z,1.10
2018-07-01T22:37:14.541Z,1.03
2018-07-01T22:39:44.835Z,1.00
2018-07-01T22:42:17.033Z,0.90
2018-07-01T22:44:48.222Z,1.20
2018-07-01T22:47:19.163Z,0.90
2018-07-01T22:49:51.512Z,1.20
2018-07-01T22:52:22.802Z,1.00
2018-07-01T22:54:55.216Z,1.07
2018-07-01T22:57:26.688Z,1.10
2018-07-01T22:59:58.982Z,1.00
2018-07-01T23:03:07.194Z,1.20
2018-07-01T23:05:38.838Z,1.10
2018-07-01T23:08:10.082Z,1.00
2018-07-01T23:10:42.451Z,1.20
2018-07-01T23:13:15.174Z,1.20
2018-07-01T23:15:46.402Z,1.10
2018-07-01T23:18:17.916Z,1.03
2018-07-01T23:20:49.760Z,1.10
2018-07-01T23:23:21.905Z,1.00
2018-07-01T23:25:53.269Z,1.10
2018-07-01T23:28:24.690Z,1.33
2018-07-01T23:30:56.152Z,1.13
2018-07-01T23:33:27.107Z,1.10
2018-07-01T23:35:58.624Z,1.07
2018-07-01T23:38:29.997Z,1.10
2018-07-01T23:41:02.286Z,1.03
2018-07-01T23:43:33.671Z,1.53
2018-07-01T23:46:05.058Z,0.90
2018-07-01T23:48:36.465Z,1.10
2018-07-01T23:51:08.497Z,0.90
2018-07-01T23:53:40.747Z,1.17
2018-07-01T23:56:12.040Z,1.10
2018-07-01T23:58:43.483Z,1.13
